Time;durP1;ratioP1;P1;durP2;ratioP2;P2;SDS_P1;SDS_P2;PMS_P1;PMS_P2;Temp;Humidity;BMP_temperature;BMP_pressure;BME280_temperature;BME280_humidity;BME280_pressure;Samples;Min_cycle;Max_cycle;Signal;HPM_P1;HPM_P2
2023/06/25 00:00:30;;;;;;;12.45;8.20;;;18.40;99.90;;;;;;5152861;27;20043;-86
2023/06/25 00:02:57;;;;;;;11.88;8.02;;;18.30;99.90;;;;;;5138436;27;20049;-87
2023/06/25 00:05:24;;;;;;;11.93;8.13;;;18.30;99.90;;;;;;5147746;27;20388;-87
2023/06/25 00:07:50;;;;;;;13.65;7.72;;;18.30;99.90;;;;;;5115943;28;20104;-86
2023/06/25 00:10:18;;;;;;;12.63;8.00;;;18.30;99.90;;;;;;5115891;28;20773;-87
2023/06/25 00:12:45;;;;;;;9.68;7.57;;;18.20;99.90;;;;;;5150921;27;20031;-86
2023/06/25 00:15:13;;;;;;;12.48;7.30;;;18.20;99.90;;;;;;5133076;27;20110;-86
2023/06/25 00:17:40;;;;;;;16.85;8.18;;;18.20;99.90;;;;;;5132090;27;20035;-86
2023/06/25 00:20:09;;;;;;;10.00;6.97;;;18.10;99.90;;;;;;5097978;28;20043;-86
2023/06/25 00:22:35;;;;;;;13.60;7.97;;;18.10;99.90;;;;;;5153123;27;20062;-87
2023/06/25 00:25:02;;;;;;;10.85;7.43;;;18.10;99.90;;;;;;5156137;27;20062;-85
2023/06/25 00:27:29;;;;;;;11.10;7.10;;;18.00;99.90;;;;;;5156284;27;20083;-86
2023/06/25 00:30:00;;;;;;;10.13;6.78;;;18.00;99.90;;;;;;5173846;27;20514;-86
2023/06/25 00:32:26;;;;;;;11.25;7.10;;;17.90;99.90;;;;;;5140709;27;20042;-86
2023/06/25 00:34:57;;;;;;;10.73;7.30;;;17.90;99.90;;;;;;5139609;27;20039;-86
2023/06/25 00:37:24;;;;;;;10.25;6.75;;;17.90;99.90;;;;;;5140900;27;20039;-86
2023/06/25 00:39:51;;;;;;;12.77;6.97;;;17.90;99.90;;;;;;5140333;28;20168;-87
2023/06/25 00:42:18;;;;;;;10.85;6.90;;;17.80;99.90;;;;;;5115431;28;20031;-87
2023/06/25 00:44:45;;;;;;;10.82;6.75;;;17.80;99.90;;;;;;5132021;28;20507;-87
2023/06/25 00:47:14;;;;;;;12.85;6.97;;;17.80;99.90;;;;;;5115606;28;20040;-87
2023/06/25 00:49:45;;;;;;;12.07;7.40;;;17.70;99.90;;;;;;5132014;28;20046;-87
2023/06/25 00:52:14;;;;;;;13.57;7.78;;;17.70;99.90;;;;;;5105555;28;20066;-87
2023/06/25 00:54:43;;;;;;;12.00;7.70;;;17.70;99.90;;;;;;5131815;28;20242;-87
2023/06/25 00:57:10;;;;;;;12.10;7.40;;;17.70;99.90;;;;;;5132146;28;20087;-86
2023/06/25 00:59:43;;;;;;;13.05;7.45;;;17.70;99.90;;;;;;5114643;28;20569;-87
2023/06/25 01:02:46;;;;;;;12.40;8.05;;;17.60;99.90;;;;;;5116748;28;20028;-87
2023/06/25 01:05:19;;;;;;;11.07;8.07;;;17.60;99.90;;;;;;5125552;28;20131;-87
2023/06/25 01:07:47;;;;;;;11.52;7.60;;;17.60;99.90;;;;;;5148602;28;20396;-87
2023/06/25 01:10:14;;;;;;;10.85;7.18;;;17.50;99.90;;;;;;5098498;28;20039;-87
2023/06/25 01:12:44;;;;;;;12.68;7.57;;;17.50;99.90;;;;;;5101776;28;20047;-87
2023/06/25 01:15:12;;;;;;;12.55;8.38;;;17.50;99.90;;;;;;5123144;28;20047;-87
2023/06/25 01:17:41;;;;;;;13.27;7.43;;;17.50;99.90;;;;;;5131694;28;20096;-87
2023/06/25 01:20:15;;;;;;;13.52;7.70;;;17.40;99.90;;;;;;5148851;27;20075;-86
2023/06/25 01:22:42;;;;;;;12.75;7.18;;;17.40;99.90;;;;;;5132735;28;20542;-87
2023/06/25 01:25:09;;;;;;;13.60;7.25;;;17.40;99.90;;;;;;5132063;28;20123;-86
2023/06/25 01:27:37;;;;;;;10.68;6.97;;;17.40;99.90;;;;;;5114461;28;20035;-86
2023/06/25 01:30:09;;;;;;;12.23;7.38;;;17.40;99.90;;;;;;5114772;28;20491;-87
2023/06/25 01:32:41;;;;;;;12.48;7.70;;;17.30;99.90;;;;;;5130246;28;20097;-87
2023/06/25 01:35:08;;;;;;;10.50;6.80;;;17.30;99.90;;;;;;5148252;28;20047;-86
2023/06/25 01:37:35;;;;;;;11.70;7.28;;;17.30;99.90;;;;;;5131016;28;20385;-86
2023/06/25 01:40:01;;;;;;;11.80;7.38;;;17.30;99.90;;;;;;5113892;28;20142;-86
2023/06/25 01:42:28;;;;;;;11.93;6.95;;;17.30;99.90;;;;;;5131377;28;20080;-87
2023/06/25 01:44:55;;;;;;;11.60;7.55;;;17.30;99.90;;;;;;5130796;28;20043;-86
2023/06/25 01:47:21;;;;;;;12.68;7.95;;;17.30;99.90;;;;;;5130854;28;20031;-86
2023/06/25 01:49:48;;;;;;;10.77;7.35;;;17.20;99.90;;;;;;5130605;28;20048;-86
2023/06/25 01:52:15;;;;;;;13.90;8.07;;;17.20;99.90;;;;;;5130923;28;20095;-86
2023/06/25 01:54:42;;;;;;;11.45;7.75;;;17.20;99.90;;;;;;5130433;28;20044;-86
2023/06/25 01:57:08;;;;;;;13.02;8.75;;;17.20;99.90;;;;;;5130946;28;20047;-86
2023/06/25 01:59:35;;;;;;;13.85;8.73;;;17.20;99.90;;;;;;5130761;28;20040;-86
2023/06/25 02:02:02;;;;;;;13.38;7.97;;;17.20;99.90;;;;;;5113903;28;20036;-87
2023/06/25 02:04:29;;;;;;;14.27;8.68;;;17.20;99.90;;;;;;5147408;27;20131;-87
2023/06/25 02:06:56;;;;;;;13.43;8.43;;;17.10;99.90;;;;;;5114296;28;20036;-87
2023/06/25 02:09:22;;;;;;;13.05;8.48;;;17.10;99.90;;;;;;5130598;28;20122;-87
2023/06/25 02:11:49;;;;;;;13.15;8.45;;;17.00;99.90;;;;;;5130767;28;20556;-87
2023/06/25 02:14:16;;;;;;;14.15;9.15;;;17.10;99.90;;;;;;5133544;28;20524;-87
2023/06/25 02:16:43;;;;;;;12.55;9.25;;;17.00;99.90;;;;;;5134254;28;20035;-87
2023/06/25 02:19:10;;;;;;;15.60;9.65;;;17.00;99.90;;;;;;5117519;28;20513;-86
2023/06/25 02:21:36;;;;;;;13.55;9.18;;;17.00;99.90;;;;;;5151457;28;20038;-87
2023/06/25 02:24:04;;;;;;;15.23;9.80;;;16.90;99.90;;;;;;5134093;28;20039;-87
2023/06/25 02:26:30;;;;;;;13.45;9.30;;;16.90;99.90;;;;;;5117952;28;20035;-86
2023/06/25 02:28:57;;;;;;;14.15;9.27;;;16.90;99.90;;;;;;5151162;28;20043;-86
2023/06/25 02:31:24;;;;;;;22.10;8.77;;;16.90;99.90;;;;;;5134190;28;20039;-86
2023/06/25 02:33:50;;;;;;;13.88;8.88;;;16.80;99.90;;;;;;5134538;28;20188;-86
2023/06/25 02:36:17;;;;;;;13.75;9.20;;;16.80;99.90;;;;;;5104204;28;20036;-87
2023/06/25 02:38:44;;;;;;;15.48;9.63;;;16.80;99.90;;;;;;5113679;28;20483;-87
2023/06/25 02:41:10;;;;;;;16.90;10.45;;;16.80;99.90;;;;;;5113737;28;20039;-87
2023/06/25 02:43:37;;;;;;;15.88;10.45;;;16.80;99.90;;;;;;5115470;28;20035;-87
2023/06/25 02:46:04;;;;;;;16.98;10.75;;;16.80;99.90;;;;;;5117452;28;20040;-86
2023/06/25 02:48:30;;;;;;;15.35;10.50;;;16.80;99.90;;;;;;5116918;28;20049;-86
2023/06/25 02:50:57;;;;;;;15.15;10.75;;;16.80;99.90;;;;;;5116997;28;20039;-86
2023/06/25 02:53:24;;;;;;;14.02;9.73;;;16.80;99.90;;;;;;5117139;28;20077;-87
2023/06/25 02:55:51;;;;;;;15.93;10.48;;;16.80;99.90;;;;;;5117259;28;20039;-86
2023/06/25 02:58:17;;;;;;;16.50;10.38;;;16.80;99.90;;;;;;5133927;28;20050;-87
2023/06/25 03:00:44;;;;;;;16.17;10.30;;;16.80;99.90;;;;;;5116993;28;20035;-86
2023/06/25 03:03:11;;;;;;;16.38;10.18;;;16.80;99.90;;;;;;5134036;28;20122;-86
2023/06/25 03:05:37;;;;;;;18.13;10.63;;;16.80;99.90;;;;;;5117197;28;20126;-87
2023/06/25 03:08:04;;;;;;;17.83;9.95;;;16.80;99.90;;;;;;5133696;28;20046;-87
2023/06/25 03:10:33;;;;;;;14.95;10.10;;;16.80;99.90;;;;;;5133973;28;20032;-85
2023/06/25 03:12:59;;;;;;;16.98;10.02;;;16.80;99.90;;;;;;5117581;28;20040;-87
2023/06/25 03:15:26;;;;;;;20.02;10.82;;;16.80;99.90;;;;;;5133869;28;20038;-87
2023/06/25 03:17:53;;;;;;;19.70;10.88;;;16.80;99.90;;;;;;5137132;27;20034;-87
2023/06/25 03:20:19;;;;;;;18.63;10.95;;;16.80;99.90;;;;;;5137325;27;20510;-87
2023/06/25 03:22:46;;;;;;;17.38;10.88;;;16.80;99.90;;;;;;5137524;27;20195;-87
2023/06/25 03:25:13;;;;;;;18.38;10.45;;;16.80;99.90;;;;;;5154537;27;20083;-87
2023/06/25 03:27:40;;;;;;;17.13;10.48;;;16.80;99.90;;;;;;5132305;27;20059;-87
2023/06/25 03:30:07;;;;;;;16.40;9.85;;;16.80;99.90;;;;;;5116514;28;20054;-87
2023/06/25 03:32:34;;;;;;;18.45;11.75;;;16.80;99.90;;;;;;5133967;28;20046;-87
2023/06/25 03:35:01;;;;;;;15.68;10.68;;;16.80;99.90;;;;;;5099727;28;20126;-87
2023/06/25 03:37:27;;;;;;;21.63;11.07;;;16.80;99.90;;;;;;5121682;27;20035;-87
2023/06/25 03:39:54;;;;;;;17.17;10.55;;;16.80;99.90;;;;;;5119453;27;20055;-86
2023/06/25 03:42:21;;;;;;;18.02;10.77;;;16.80;99.90;;;;;;5136910;27;20510;-87
2023/06/25 03:44:52;;;;;;;16.98;10.18;;;16.80;99.90;;;;;;5136950;27;20035;-87
2023/06/25 03:47:19;;;;;;;18.10;10.38;;;16.80;99.90;;;;;;5153350;27;20035;-87
2023/06/25 03:49:46;;;;;;;16.70;11.05;;;16.80;99.90;;;;;;5153463;27;20045;-86
2023/06/25 03:52:12;;;;;;;16.30;10.80;;;16.80;99.90;;;;;;5153384;27;20091;-87
2023/06/25 03:54:39;;;;;;;19.50;11.05;;;16.80;99.90;;;;;;5118560;28;20043;-87
2023/06/25 03:57:06;;;;;;;17.73;10.77;;;16.90;99.90;;;;;;5136150;27;20125;-87
2023/06/25 03:59:33;;;;;;;21.50;11.48;;;16.80;99.90;;;;;;5115338;28;20043;-87
2023/06/25 04:01:59;;;;;;;16.13;10.48;;;16.90;99.90;;;;;;5116364;28;20380;-86
2023/06/25 04:04:26;;;;;;;18.17;11.25;;;16.90;99.90;;;;;;5099569;28;20130;-87
2023/06/25 04:06:53;;;;;;;18.98;11.20;;;16.90;99.90;;;;;;5099981;28;20036;-87
2023/06/25 04:09:19;;;;;;;21.45;11.68;;;16.90;99.90;;;;;;5122120;28;20046;-87
2023/06/25 04:11:46;;;;;;;19.08;11.55;;;16.90;99.90;;;;;;5133390;28;20044;-87
2023/06/25 04:14:13;;;;;;;18.17;10.70;;;17.00;99.90;;;;;;5132717;28;20134;-87
2023/06/25 04:16:40;;;;;;;21.45;11.50;;;17.10;99.90;;;;;;5132965;28;20039;-87
2023/06/25 04:19:08;;;;;;;22.30;11.57;;;17.10;99.90;;;;;;5132569;28;20039;-87
2023/06/25 04:21:35;;;;;;;16.50;10.23;;;17.10;99.90;;;;;;5149634;28;20123;-87
2023/06/25 04:24:01;;;;;;;21.63;11.60;;;17.10;99.90;;;;;;5132787;28;20041;-87
2023/06/25 04:26:28;;;;;;;16.75;10.65;;;17.20;99.90;;;;;;5132615;28;20127;-87
2023/06/25 04:28:55;;;;;;;20.13;10.77;;;17.20;99.90;;;;;;5132825;28;20126;-87
2023/06/25 04:31:23;;;;;;;18.85;11.40;;;17.20;99.90;;;;;;5115450;28;20390;-87
2023/06/25 04:33:50;;;;;;;19.95;11.30;;;17.30;99.90;;;;;;5115786;28;20056;-87
2023/06/25 04:36:18;;;;;;;17.25;10.75;;;17.30;99.90;;;;;;5132537;28;20118;-87
2023/06/25 04:38:45;;;;;;;21.65;11.48;;;17.30;99.90;;;;;;5115450;28;20051;-87
2023/06/25 04:41:12;;;;;;;19.92;11.77;;;17.40;99.90;;;;;;5147443;27;20050;-87
2023/06/25 04:43:39;;;;;;;17.42;9.98;;;17.40;99.90;;;;;;5135730;27;20032;-87
2023/06/25 04:46:05;;;;;;;17.80;10.82;;;17.40;99.90;;;;;;5135708;27;20035;-87
2023/06/25 04:48:32;;;;;;;18.88;10.75;;;17.40;99.90;;;;;;5135644;27;20039;-87
2023/06/25 04:51:03;;;;;;;16.40;10.15;;;17.50;99.90;;;;;;5136074;27;20487;-87
2023/06/25 04:53:30;;;;;;;14.57;10.20;;;17.50;99.90;;;;;;5132234;28;20043;-87
2023/06/25 04:55:57;;;;;;;16.50;9.85;;;17.60;99.90;;;;;;5132029;28;20130;-87
2023/06/25 04:58:24;;;;;;;19.77;9.55;;;17.70;99.90;;;;;;5114816;28;20613;-87
2023/06/25 05:00:50;;;;;;;16.00;10.15;;;17.70;99.90;;;;;;5098738;28;20073;-87
2023/06/25 05:03:17;;;;;;;14.80;9.75;;;17.80;99.90;;;;;;5114873;28;20122;-87
2023/06/25 05:05:44;;;;;;;15.25;9.32;;;17.90;99.90;;;;;;5114767;28;20037;-87
2023/06/25 05:08:12;;;;;;;14.20;9.10;;;17.90;99.90;;;;;;5132417;28;20048;-87
2023/06/25 05:10:41;;;;;;;15.60;9.57;;;18.10;99.90;;;;;;5115173;27;20074;-87
2023/06/25 05:13:08;;;;;;;15.35;9.43;;;18.10;99.90;;;;;;5152528;27;20091;-87
2023/06/25 05:15:35;;;;;;;15.13;8.68;;;18.20;99.90;;;;;;5135437;27;20035;-87
2023/06/25 05:18:06;;;;;;;15.88;9.40;;;18.20;99.90;;;;;;5118396;27;20039;-87
2023/06/25 05:20:35;;;;;;;14.48;9.88;;;18.30;99.90;;;;;;5151711;27;20036;-87
2023/06/25 05:23:06;;;;;;;13.45;8.73;;;18.40;99.90;;;;;;5131517;28;20071;-87
2023/06/25 05:25:33;;;;;;;13.90;9.25;;;18.40;99.90;;;;;;5114497;28;20381;-87
2023/06/25 05:28:01;;;;;;;16.73;9.55;;;18.50;99.90;;;;;;5114786;28;20156;-87
2023/06/25 05:30:28;;;;;;;15.23;9.40;;;18.50;99.90;;;;;;5114281;28;20556;-88
2023/06/25 05:32:56;;;;;;;13.55;7.82;;;18.60;99.90;;;;;;5114068;28;20419;-87
2023/06/25 05:35:26;;;;;;;17.05;8.93;;;18.60;99.90;;;;;;5130946;28;20043;-86
2023/06/25 05:37:52;;;;;;;14.20;9.13;;;18.60;99.90;;;;;;5098262;28;20661;-87
2023/06/25 05:40:20;;;;;;;14.88;8.63;;;18.70;99.90;;;;;;5096879;28;20051;-86
2023/06/25 05:42:46;;;;;;;15.02;8.73;;;18.80;99.90;;;;;;5121110;28;20407;-87
2023/06/25 05:45:13;;;;;;;13.70;8.60;;;18.90;99.90;;;;;;5130472;28;20036;-87
2023/06/25 05:47:40;;;;;;;12.55;7.90;;;19.00;99.90;;;;;;5130810;28;20042;-86
2023/06/25 05:50:07;;;;;;;13.20;8.40;;;19.00;99.90;;;;;;5112966;28;20048;-85
2023/06/25 05:52:34;;;;;;;12.77;7.68;;;19.10;99.90;;;;;;5129959;28;20393;-85
2023/06/25 05:55:01;;;;;;;12.35;8.52;;;19.10;99.90;;;;;;5113669;28;20043;-84
2023/06/25 05:57:27;;;;;;;15.25;8.75;;;19.20;99.90;;;;;;5113195;28;20044;-84
2023/06/25 05:59:54;;;;;;;12.98;9.48;;;19.30;99.90;;;;;;5113118;28;20122;-86
2023/06/25 06:02:21;;;;;;;15.88;8.88;;;19.30;99.90;;;;;;5113073;28;20047;-86
2023/06/25 06:04:47;;;;;;;14.77;9.40;;;19.40;99.90;;;;;;5113783;28;20042;-86
2023/06/25 06:07:14;;;;;;;14.32;9.20;;;19.50;99.90;;;;;;5114183;28;20126;-86
2023/06/25 06:09:41;;;;;;;17.13;9.48;;;19.60;99.90;;;;;;5116660;27;20046;-86
2023/06/25 06:12:08;;;;;;;14.20;9.32;;;19.70;99.90;;;;;;5130282;28;20480;-86
2023/06/25 06:14:37;;;;;;;15.88;9.80;;;19.80;99.90;;;;;;5113335;28;20376;-86
2023/06/25 06:17:04;;;;;;;16.42;9.77;;;19.90;99.90;;;;;;5129316;28;20044;-86
2023/06/25 06:19:31;;;;;;;14.88;10.00;;;20.00;99.90;;;;;;5120950;27;20124;-86
2023/06/25 06:21:58;;;;;;;16.13;9.00;;;20.00;99.90;;;;;;5138260;27;20031;-86
2023/06/25 06:24:25;;;;;;;15.35;9.02;;;20.10;99.90;;;;;;5150423;27;20039;-86
2023/06/25 06:26:51;;;;;;;14.95;9.80;;;20.20;99.90;;;;;;5114301;27;20035;-87
2023/06/25 06:29:19;;;;;;;12.95;8.23;;;20.30;99.90;;;;;;5112177;28;20046;-87
2023/06/25 06:31:45;;;;;;;18.65;9.07;;;20.40;99.90;;;;;;5134675;28;20035;-87
2023/06/25 06:34:13;;;;;;;12.75;8.70;;;20.50;99.90;;;;;;5120488;27;20031;-86
2023/06/25 06:36:40;;;;;;;13.30;8.40;;;20.60;99.90;;;;;;5117463;28;20050;-86
2023/06/25 06:39:06;;;;;;;14.07;8.95;;;20.70;99.90;;;;;;5100470;28;20411;-86
2023/06/25 06:41:33;;;;;;;14.38;8.60;;;20.80;99.90;;;;;;5134436;28;20035;-87
2023/06/25 06:44:14;;;;;;;15.70;9.55;;;20.90;99.90;;;;;;5124354;28;20541;-85
2023/06/25 06:46:41;;;;;;;12.25;7.95;;;21.10;99.90;;;;;;5141522;27;20089;-86
2023/06/25 06:49:08;;;;;;;14.65;8.45;;;21.20;99.90;;;;;;5134176;28;20123;-86
2023/06/25 06:51:36;;;;;;;16.52;9.07;;;21.30;99.90;;;;;;5133758;28;20036;-85
2023/06/25 06:54:06;;;;;;;15.27;8.18;;;21.40;99.90;;;;;;5140451;28;20040;-86
2023/06/25 06:56:34;;;;;;;13.63;8.90;;;21.60;99.90;;;;;;5129010;27;20499;-85
2023/06/25 06:59:00;;;;;;;12.57;8.40;;;21.60;99.90;;;;;;5151919;27;20104;-86
2023/06/25 07:01:27;;;;;;;15.30;8.60;;;21.80;99.90;;;;;;5153930;27;20043;-86
2023/06/25 07:03:54;;;;;;;13.82;9.77;;;21.90;99.90;;;;;;5154345;27;20509;-86
2023/06/25 07:06:20;;;;;;;15.35;9.13;;;21.90;99.90;;;;;;5120872;27;20184;-88
2023/06/25 07:08:47;;;;;;;16.20;9.25;;;22.00;99.90;;;;;;5120612;27;20039;-86
2023/06/25 07:11:16;;;;;;;16.10;8.93;;;22.20;99.90;;;;;;5137407;27;20071;-85
2023/06/25 07:13:43;;;;;;;11.55;8.45;;;22.20;99.90;;;;;;5137831;27;20398;-89
2023/06/25 07:16:10;;;;;;;14.23;8.63;;;22.30;99.90;;;;;;5107604;28;20047;-91
2023/06/25 07:18:37;;;;;;;16.23;8.85;;;22.40;99.90;;;;;;5120846;28;20040;-91
2023/06/25 07:21:05;;;;;;;16.05;9.77;;;22.50;99.90;;;;;;5134294;28;20062;-91
2023/06/25 07:23:35;;;;;;;17.23;8.90;;;22.70;99.90;;;;;;5131981;27;20030;-92
2023/06/25 07:26:02;;;;;;;15.60;10.18;;;22.80;99.90;;;;;;5154637;27;20043;-88
2023/06/25 07:28:29;;;;;;;15.25;8.90;;;22.90;99.90;;;;;;5137634;27;20051;-87
2023/06/25 07:30:56;;;;;;;16.10;10.20;;;23.00;99.90;;;;;;5137648;27;20039;-88
2023/06/25 07:33:23;;;;;;;14.38;9.45;;;23.10;99.90;;;;;;5154544;27;20037;-88
2023/06/25 07:35:49;;;;;;;14.38;9.95;;;23.10;99.90;;;;;;5116396;27;20053;-89
2023/06/25 07:38:16;;;;;;;15.48;9.98;;;23.20;99.90;;;;;;5099752;27;20142;-89
2023/06/25 07:40:43;;;;;;;15.18;10.45;;;23.30;99.90;;;;;;5113799;27;20465;-89
2023/06/25 07:43:10;;;;;;;16.52;9.13;;;23.40;99.90;;;;;;5142011;28;20035;-89
2023/06/25 07:45:38;;;;;;;13.15;9.45;;;23.40;99.90;;;;;;5134317;27;20039;-89
2023/06/25 07:48:05;;;;;;;12.10;9.60;;;23.60;99.90;;;;;;5137334;27;20039;-88
2023/06/25 07:50:32;;;;;;;14.00;10.00;;;23.80;99.90;;;;;;5136869;27;20054;-88
2023/06/25 07:52:59;;;;;;;14.93;9.95;;;23.90;99.90;;;;;;5116860;28;20061;-90
2023/06/25 07:55:25;;;;;;;14.63;9.35;;;23.90;99.90;;;;;;5136980;27;20039;-90
2023/06/25 07:57:55;;;;;;;15.25;10.82;;;24.00;99.90;;;;;;5137231;27;20466;-90
2023/06/25 08:00:21;;;;;;;13.32;8.63;;;24.10;99.90;;;;;;5136918;27;20134;-89
2023/06/25 08:02:48;;;;;;;11.80;8.82;;;24.20;99.90;;;;;;5120500;27;20126;-89
2023/06/25 08:05:15;;;;;;;11.18;8.52;;;24.20;99.90;;;;;;5136542;27;20529;-88
2023/06/25 08:07:42;;;;;;;11.43;9.48;;;24.40;99.90;;;;;;5133163;28;20040;-91
2023/06/25 08:10:14;;;;;;;12.35;9.98;;;24.50;99.90;;;;;;5118241;27;20084;-90
2023/06/25 08:12:41;;;;;;;13.57;8.77;;;24.60;99.90;;;;;;5133138;28;20047;-89
2023/06/25 08:15:08;;;;;;;11.98;8.70;;;24.70;99.90;;;;;;5116452;27;20069;-89
2023/06/25 08:17:37;;;;;;;13.27;9.20;;;24.90;99.90;;;;;;5128454;27;20050;-89
2023/06/25 08:20:08;;;;;;;12.05;8.15;;;25.00;99.90;;;;;;5138674;28;20035;-90
2023/06/25 08:22:35;;;;;;;11.57;9.45;;;25.00;99.90;;;;;;5151566;27;20037;-90
2023/06/25 08:25:27;;;;;;;13.98;8.48;;;25.20;99.90;;;;;;5118244;27;20551;-89
2023/06/25 08:27:54;;;;;;;11.02;7.85;;;25.30;99.90;;;;;;5153909;27;20395;-90
2023/06/25 08:30:20;;;;;;;13.30;8.18;;;25.30;99.90;;;;;;5136475;27;20047;-90
2023/06/25 08:32:47;;;;;;;10.05;8.52;;;25.40;99.90;;;;;;5136241;27;20043;-90
2023/06/25 08:35:14;;;;;;;10.60;7.88;;;25.50;99.90;;;;;;5119918;27;20541;-90
2023/06/25 08:37:44;;;;;;;11.63;8.57;;;25.70;99.90;;;;;;5152370;27;20407;-90
2023/06/25 08:40:12;;;;;;;11.25;8.80;;;25.70;99.90;;;;;;5153398;27;20039;-89
2023/06/25 08:42:42;;;;;;;12.55;9.27;;;25.70;99.90;;;;;;5135343;27;20031;-90
2023/06/25 08:45:10;;;;;;;13.75;7.97;;;25.80;99.90;;;;;;5153619;27;20126;-90
2023/06/25 08:47:39;;;;;;;8.88;7.47;;;25.90;99.90;;;;;;5152950;27;20129;-90
2023/06/25 08:50:08;;;;;;;11.10;7.85;;;26.10;99.90;;;;;;5136571;27;20091;-90
2023/06/25 08:52:36;;;;;;;11.15;7.82;;;26.30;99.90;;;;;;5152609;27;20100;-89
2023/06/25 08:55:09;;;;;;;10.88;7.43;;;26.40;99.90;;;;;;5115854;28;20043;-89
2023/06/25 08:57:36;;;;;;;10.02;8.13;;;26.40;99.90;;;;;;5144805;27;20069;-89
2023/06/25 09:00:05;;;;;;;11.27;7.20;;;26.50;99.90;;;;;;5135798;27;20039;-90
2023/06/25 09:02:32;;;;;;;10.35;8.05;;;26.60;99.90;;;;;;5133214;27;20078;-89
2023/06/25 09:05:13;;;;;;;11.15;8.38;;;26.60;99.90;;;;;;5135919;27;20502;-90
2023/06/25 09:07:44;;;;;;;10.02;8.15;;;26.70;99.90;;;;;;5138644;28;20035;-89
2023/06/25 09:10:11;;;;;;;10.27;7.50;;;26.80;99.90;;;;;;5155981;27;20492;-90
2023/06/25 09:12:38;;;;;;;9.30;6.75;;;26.90;99.90;;;;;;5123505;27;20063;-91
2023/06/25 09:15:06;;;;;;;9.45;6.68;;;27.00;99.90;;;;;;5119078;27;20035;-91
2023/06/25 09:17:33;;;;;;;10.05;7.72;;;27.10;99.90;;;;;;5142643;28;20043;-91
2023/06/25 09:20:08;;;;;;;8.95;7.38;;;27.20;99.90;;;;;;5142852;27;20100;-92
2023/06/25 09:22:56;;;;;;;12.25;8.32;;;27.20;99.90;;;;;;5153600;27;20059;-90
2023/06/25 09:25:30;;;;;;;10.80;7.88;;;27.30;99.90;;;;;;5153185;27;20037;-91
2023/06/25 09:28:00;;;;;;;8.82;7.00;;;27.30;99.90;;;;;;5131416;28;20047;-89
2023/06/25 09:30:27;;;;;;;9.25;6.80;;;27.30;99.90;;;;;;5115936;28;20126;-89
2023/06/25 09:32:55;;;;;;;11.80;7.22;;;27.40;99.90;;;;;;5123671;27;20063;-90
2023/06/25 09:35:24;;;;;;;11.95;6.95;;;27.60;99.90;;;;;;5152378;27;20121;-90
2023/06/25 09:37:52;;;;;;;7.07;5.43;;;27.70;99.90;;;;;;5148090;27;20127;-89
2023/06/25 09:40:20;;;;;;;8.38;6.07;;;27.80;99.90;;;;;;5134746;27;20044;-90
2023/06/25 09:42:53;;;;;;;9.05;5.65;;;28.00;99.90;;;;;;5140335;27;20043;-90
2023/06/25 09:45:22;;;;;;;7.93;5.80;;;28.00;99.90;;;;;;5151749;27;20043;-89
2023/06/25 09:47:50;;;;;;;6.50;4.97;;;28.10;99.90;;;;;;5150827;27;20046;-89
2023/06/25 09:50:26;;;;;;;8.77;4.88;;;28.20;99.90;;;;;;5117705;28;20047;-90
2023/06/25 09:52:59;;;;;;;7.10;4.82;;;28.20;99.30;;;;;;5146854;28;20089;-87
2023/06/25 09:55:28;;;;;;;15.93;4.30;;;28.20;99.90;;;;;;5151649;27;20195;-87
2023/06/25 09:57:56;;;;;;;6.38;4.00;;;28.30;99.70;;;;;;5151321;27;20039;-88
2023/06/25 10:00:24;;;;;;;5.22;3.47;;;28.30;99.60;;;;;;5151587;27;20075;-88
2023/06/25 10:02:52;;;;;;;7.95;3.50;;;28.40;98.80;;;;;;5134912;27;20035;-89
2023/06/25 10:05:18;;;;;;;5.47;3.53;;;28.50;95.40;;;;;;5117618;27;20035;-88
2023/06/25 10:07:46;;;;;;;4.97;3.58;;;28.50;97.80;;;;;;5134451;27;20518;-87
2023/06/25 10:10:23;;;;;;;6.40;4.22;;;28.60;97.20;;;;;;5130900;28;20040;-88
2023/06/25 10:12:51;;;;;;;8.57;3.80;;;28.70;96.30;;;;;;5113348;28;20130;-86
2023/06/25 10:15:31;;;;;;;6.45;3.80;;;28.90;96.90;;;;;;5113644;28;20043;-87
2023/06/25 10:18:00;;;;;;;5.15;3.78;;;28.90;95.50;;;;;;5118513;28;20076;-88
2023/06/25 10:20:32;;;;;;;5.75;3.83;;;29.00;96.60;;;;;;5113485;28;20442;-86
2023/06/25 10:23:09;;;;;;;6.05;3.42;;;28.90;96.40;;;;;;5130876;28;20042;-89
2023/06/25 10:25:39;;;;;;;5.43;3.75;;;28.80;96.00;;;;;;5149487;28;20035;-87
2023/06/25 10:28:09;;;;;;;6.80;3.50;;;29.10;96.80;;;;;;5146203;27;20504;-84
2023/06/25 10:30:37;;;;;;;8.70;4.03;;;29.20;96.10;;;;;;5141966;27;20487;-88
2023/06/25 10:33:05;;;;;;;5.53;4.15;;;29.20;96.30;;;;;;5153260;27;20526;-88
2023/06/25 10:35:40;;;;;;;5.68;4.03;;;29.30;96.40;;;;;;5136939;27;20095;-86
2023/06/25 10:38:08;;;;;;;5.63;3.75;;;29.30;96.50;;;;;;5135432;27;20078;-89
2023/06/25 10:40:40;;;;;;;8.07;4.00;;;29.30;96.70;;;;;;5145857;28;20044;-91
2023/06/25 10:43:07;;;;;;;6.57;3.97;;;29.40;96.00;;;;;;5147398;28;20035;-91
2023/06/25 10:45:34;;;;;;;5.68;3.80;;;29.50;96.40;;;;;;5156311;28;20104;-92
2023/06/25 10:48:10;;;;;;;5.18;3.72;;;29.60;96.30;;;;;;5102035;28;20070;-93
2023/06/25 10:50:37;;;;;;;4.53;3.40;;;29.60;95.90;;;;;;5129580;28;20449;-86
2023/06/25 10:53:11;;;;;;;5.93;3.95;;;29.70;96.60;;;;;;5128676;28;20559;-86
2023/06/25 10:55:48;;;;;;;6.73;3.80;;;29.70;95.70;;;;;;5129240;28;20556;-86
2023/06/25 10:58:20;;;;;;;6.35;3.60;;;29.70;96.30;;;;;;5128700;28;20040;-86
2023/06/25 11:00:56;;;;;;;6.93;4.30;;;29.70;96.60;;;;;;5129419;28;20043;-90
2023/06/25 11:03:24;;;;;;;5.68;3.72;;;29.70;95.80;;;;;;5130668;28;20098;-90
2023/06/25 11:05:51;;;;;;;5.13;4.18;;;29.80;95.70;;;;;;5133263;28;20039;-85
2023/06/25 11:08:18;;;;;;;8.20;4.00;;;29.90;96.30;;;;;;5133688;28;20035;-88
2023/06/25 11:10:45;;;;;;;5.65;3.67;;;29.90;96.00;;;;;;5137523;28;20084;-88
2023/06/25 11:13:12;;;;;;;6.32;4.03;;;29.90;95.90;;;;;;5116862;28;20043;-88
2023/06/25 11:15:42;;;;;;;5.93;3.78;;;30.00;95.80;;;;;;5110833;28;20043;-88
2023/06/25 11:18:09;;;;;;;5.97;3.70;;;30.00;95.80;;;;;;5124831;28;20031;-86
2023/06/25 11:20:39;;;;;;;5.30;3.55;;;30.10;95.70;;;;;;5116661;28;20040;-88
2023/06/25 11:23:10;;;;;;;6.40;3.92;;;30.00;94.90;;;;;;5135351;28;20119;-88
2023/06/25 11:25:37;;;;;;;5.70;3.90;;;30.10;95.20;;;;;;5117746;28;20036;-87
2023/06/25 11:28:07;;;;;;;6.72;4.07;;;30.00;94.70;;;;;;5116740;28;20089;-88
2023/06/25 11:30:33;;;;;;;5.80;3.60;;;30.10;94.60;;;;;;5134448;28;20042;-88
2023/06/25 11:33:17;;;;;;;7.20;3.83;;;30.00;94.80;;;;;;5099591;28;20035;-88
2023/06/25 11:35:50;;;;;;;5.22;3.42;;;30.00;94.50;;;;;;5134111;28;20040;-87
2023/06/25 11:38:27;;;;;;;4.53;3.03;;;30.20;94.90;;;;;;5148819;28;20054;-88
2023/06/25 11:40:56;;;;;;;4.57;3.00;;;30.30;94.30;;;;;;5149729;28;20059;-88
2023/06/25 11:43:24;;;;;;;4.50;3.10;;;30.30;93.20;;;;;;5153271;27;20035;-87
2023/06/25 11:45:51;;;;;;;5.07;2.88;;;30.30;94.60;;;;;;5153528;27;20039;-88
2023/06/25 11:48:18;;;;;;;4.30;2.92;;;30.10;94.30;;;;;;5153552;27;20411;-88
2023/06/25 11:50:48;;;;;;;4.80;3.20;;;30.30;94.10;;;;;;5120063;27;20127;-88
2023/06/25 11:53:15;;;;;;;5.40;3.50;;;30.30;93.60;;;;;;5137027;27;20552;-87
2023/06/25 11:55:41;;;;;;;5.55;3.30;;;30.30;93.60;;;;;;5116795;28;20036;-87
2023/06/25 11:58:09;;;;;;;5.78;3.20;;;30.30;93.90;;;;;;5115659;28;20043;-87
2023/06/25 12:00:37;;;;;;;7.32;3.20;;;30.50;93.90;;;;;;5116182;28;20039;-88
2023/06/25 12:03:03;;;;;;;5.20;3.40;;;30.50;93.70;;;;;;5149772;28;20393;-87
2023/06/25 12:05:30;;;;;;;5.10;3.13;;;30.50;93.30;;;;;;5099353;28;20126;-87
2023/06/25 12:07:57;;;;;;;7.20;3.42;;;30.60;93.10;;;;;;5116921;28;20039;-88
2023/06/25 12:10:26;;;;;;;4.65;3.08;;;30.60;93.30;;;;;;5099297;28;20046;-88
2023/06/25 12:12:54;;;;;;;5.35;3.38;;;30.80;93.20;;;;;;5132796;28;20039;-87
2023/06/25 12:15:21;;;;;;;6.72;3.30;;;30.70;93.20;;;;;;5109087;27;20180;-87
2023/06/25 12:17:48;;;;;;;5.22;3.40;;;30.70;93.80;;;;;;5152843;27;20487;-88
2023/06/25 12:20:15;;;;;;;6.93;3.45;;;30.70;93.90;;;;;;5152593;27;20133;-87
2023/06/25 12:22:42;;;;;;;6.00;3.22;;;30.70;93.90;;;;;;5119749;27;20517;-89
2023/06/25 12:25:09;;;;;;;4.53;2.83;;;30.80;93.50;;;;;;5132377;28;20031;-89
2023/06/25 12:27:39;;;;;;;5.55;3.28;;;30.80;93.20;;;;;;5130143;28;20112;-88
2023/06/25 12:30:07;;;;;;;4.35;3.05;;;30.80;92.90;;;;;;5116349;28;20047;-89
2023/06/25 12:32:37;;;;;;;3.90;2.60;;;30.80;92.40;;;;;;5149491;27;20041;-87
2023/06/25 12:35:03;;;;;;;4.47;2.95;;;30.80;92.20;;;;;;5117524;27;20043;-84
2023/06/25 12:37:32;;;;;;;4.30;2.63;;;30.80;92.50;;;;;;5118432;27;20523;-87
2023/06/25 12:39:58;;;;;;;5.57;3.20;;;30.80;92.80;;;;;;5117667;27;20100;-88
2023/06/25 12:42:25;;;;;;;4.80;2.85;;;30.90;92.90;;;;;;5152553;27;20044;-88